Ana Sayfa
METAR-TAF:

METAR-TAF

Havaalanları :

Mendoza, Arjantin

Enlem: 32-50S, Boylam: 068-47W, yükseklik: 705 m

Güncel hava durumu gözlemi

Rapor saat 10:00 UTC de 1 saat ve 18 dakika önce yapıldı.
Rüzgar güneybatıdan 5 kt
Sıcaklık 11°C
Nem 82%
Basınç 1017 hPa
Görüş mesafesi 10 km veya daha fazla
1500 m altında bulut yok ve kümülonimbus yok

METAR: SAME 171000Z 23005KT CAVOK 11/08 Q1017

Saat: 08:18 (11:18 UTC)

Tahmin

Rapor saat 05:00 UTC de 6 saat ve 18 dakika önce yapıldı.
Ayın 17'si saat 06 UTC'den ayın 18'si saat 06 UTC'ye kadar geçerli Tahmin
Rüzgar güneybatıdan 5 kt
Görüş mesafesi 10 km veya daha fazla
1500 m altında bulut yok ve kümülonimbus yok
Dönüşüyor
ayın 17'si saat 15 UTC'den ayın 17'si saat 17 UTC'ye kadar
Rüzgar kuzeydoğudan 5 kt
Dönüşüyor
ayın 18'si saat 02 UTC'den ayın 18'si saat 04 UTC'ye kadar
Rüzgar güney/güneybatıdan 5 kt

TAF: SAME 170500Z 1706/1806 23005KT CAVOK TX24/1720Z TN10/1710Z BECMG 1715/1717 05005KT BECMG 1802/1804 20005KT

4.000'den fazla havaalanı için hava durumu gözlemleri ve tahminleri (METAR ve TAF raporları).

Kullanılabilir istasyonlar harita üzerinde sarı ve kırmızı noktalarla gösterilir.

İstasyonun adını görmek için fareyi noktanın üzerinde gezdirin.

Sonrasında hava gözlem ve tahminlerini görmek için tıklayın.

Haritayı değiştirmek için: yaklaştırmak için siyah artı işaretli yeşil düğmeye ve uzaklaştırmak için de eksi işaretli düğmeye hızla tıklayın; bitişik haritalar için yeşil okları kullanın.


METAR-TAF: